createdAt,value
2019-02-18T00:00:20.149Z,0.00
2019-02-18T00:01:20.276Z,0.00
2019-02-18T00:02:20.434Z,0.00
2019-02-18T00:03:20.547Z,0.00
2019-02-18T00:04:20.670Z,0.00
2019-02-18T00:05:20.810Z,0.00
2019-02-18T00:06:20.928Z,0.00
2019-02-18T00:07:21.050Z,0.00
2019-02-18T00:08:21.184Z,0.00
2019-02-18T00:09:21.326Z,0.00
2019-02-18T00:10:21.457Z,0.00
2019-02-18T00:11:21.571Z,0.00
2019-02-18T00:12:21.707Z,0.00
2019-02-18T00:13:21.863Z,0.00
2019-02-18T00:14:22.002Z,0.00
2019-02-18T00:15:22.096Z,0.00
2019-02-18T00:16:22.201Z,0.00
2019-02-18T00:17:22.339Z,0.00
2019-02-18T00:18:22.487Z,0.00
2019-02-18T00:19:22.590Z,0.00
2019-02-18T00:20:22.693Z,0.00
2019-02-18T00:21:22.871Z,0.00
2019-02-18T00:22:22.943Z,0.00
2019-02-18T00:23:23.068Z,0.00
2019-02-18T00:24:23.185Z,0.00
2019-02-18T00:25:23.456Z,0.00
2019-02-18T00:26:23.412Z,0.00
2019-02-18T00:27:23.546Z,0.00
2019-02-18T00:28:23.801Z,0.00
2019-02-18T00:29:23.802Z,0.00
2019-02-18T00:30:23.931Z,0.00
2019-02-18T00:31:24.629Z,0.00
2019-02-18T00:32:24.173Z,0.00
2019-02-18T00:33:24.290Z,0.00
2019-02-18T00:34:24.412Z,0.00
2019-02-18T00:35:24.541Z,0.00
2019-02-18T00:36:24.680Z,0.00
2019-02-18T00:37:24.919Z,0.00
2019-02-18T00:38:24.925Z,0.00
2019-02-18T00:39:25.075Z,0.00
2019-02-18T00:40:25.201Z,0.00
2019-02-18T00:41:25.324Z,0.00
2019-02-18T00:42:25.454Z,0.00
2019-02-18T00:43:25.577Z,0.00
2019-02-18T00:44:25.698Z,0.00
2019-02-18T00:45:25.829Z,0.00
2019-02-18T00:46:25.955Z,0.00
2019-02-18T00:47:26.087Z,0.00
2019-02-18T00:48:26.212Z,0.00
2019-02-18T00:49:26.344Z,0.00
2019-02-18T00:50:26.470Z,0.00
2019-02-18T00:51:26.619Z,0.00
2019-02-18T00:52:26.737Z,0.00
2019-02-18T00:53:26.863Z,0.00
2019-02-18T00:54:26.987Z,0.00
2019-02-18T00:55:27.129Z,0.00
2019-02-18T00:56:27.246Z,0.00
2019-02-18T00:57:27.376Z,0.00
2019-02-18T00:58:27.498Z,0.00
2019-02-18T00:59:27.646Z,0.00
2019-02-18T01:00:27.778Z,0.00
2019-02-18T01:01:27.903Z,0.00
2019-02-18T01:02:28.020Z,0.00
2019-02-18T01:03:28.157Z,0.00
2019-02-18T01:04:28.279Z,0.00
2019-02-18T01:05:28.413Z,0.00
2019-02-18T01:06:28.537Z,0.00
2019-02-18T01:07:34.750Z,0.00
2019-02-18T01:08:28.811Z,0.00
2019-02-18T01:09:28.928Z,0.00
2019-02-18T01:10:29.056Z,0.00
2019-02-18T01:11:29.217Z,0.00
2019-02-18T01:12:29.386Z,0.00
2019-02-18T01:13:29.455Z,0.00
2019-02-18T01:14:29.581Z,0.00
2019-02-18T01:15:29.724Z,0.00
2019-02-18T01:16:29.850Z,0.00
2019-02-18T01:17:29.982Z,0.00
2019-02-18T01:18:30.106Z,0.00
2019-02-18T01:19:30.226Z,0.00
2019-02-18T01:20:30.345Z,0.00
2019-02-18T01:21:30.477Z,0.00
2019-02-18T01:22:30.601Z,0.00
2019-02-18T01:23:30.759Z,0.00
2019-02-18T01:24:30.874Z,0.00
2019-02-18T01:25:30.998Z,0.00
2019-02-18T01:26:31.118Z,0.00
2019-02-18T01:27:31.267Z,0.00
2019-02-18T01:28:31.398Z,0.00
2019-02-18T01:29:31.508Z,0.00
2019-02-18T01:30:31.637Z,0.00
2019-02-18T01:31:31.781Z,0.00
2019-02-18T01:32:31.905Z,0.00
2019-02-18T01:33:32.032Z,0.00
2019-02-18T01:34:32.160Z,0.00
2019-02-18T01:35:32.300Z,0.00
2019-02-18T01:36:32.424Z,0.00
2019-02-18T01:37:32.548Z,0.00
2019-02-18T01:38:32.675Z,0.00
2019-02-18T01:39:32.830Z,0.00
2019-02-18T01:40:32.941Z,0.00
2019-02-18T01:41:33.068Z,0.00
2019-02-18T01:42:33.227Z,0.00
2019-02-18T01:43:33.381Z,0.00
2019-02-18T01:44:33.469Z,0.00
2019-02-18T01:45:33.597Z,0.00
2019-02-18T01:46:33.797Z,0.00
2019-02-18T01:47:33.881Z,0.00
2019-02-18T01:48:33.995Z,0.00
2019-02-18T01:49:34.131Z,0.00
2019-02-18T01:50:34.276Z,0.00
2019-02-18T01:51:34.382Z,0.00
2019-02-18T01:52:34.514Z,0.00
2019-02-18T01:53:34.648Z,0.00
2019-02-18T01:54:34.775Z,0.00
2019-02-18T01:55:34.905Z,0.00
2019-02-18T01:56:35.031Z,0.00
2019-02-18T01:57:35.156Z,0.00
2019-02-18T01:58:35.305Z,0.00
2019-02-18T01:59:35.446Z,0.00
2019-02-18T02:00:35.553Z,0.00
2019-02-18T02:01:35.668Z,0.00
2019-02-18T02:02:35.817Z,0.00
2019-02-18T02:03:35.936Z,0.00
2019-02-18T02:04:36.084Z,0.00
2019-02-18T02:05:36.221Z,0.00
2019-02-18T02:06:36.338Z,0.00
2019-02-18T02:07:36.466Z,0.00
2019-02-18T02:08:36.588Z,0.00
2019-02-18T02:09:36.723Z,0.00
2019-02-18T02:10:36.839Z,0.00
2019-02-18T02:11:36.972Z,0.00
2019-02-18T02:12:37.097Z,0.00
2019-02-18T02:13:37.232Z,0.00
2019-02-18T02:14:37.341Z,0.00
2019-02-18T02:15:37.468Z,0.00
2019-02-18T02:16:37.593Z,0.00
2019-02-18T02:17:37.745Z,0.00
2019-02-18T02:18:37.870Z,0.00
2019-02-18T02:19:37.997Z,0.00
2019-02-18T02:20:38.122Z,0.00
2019-02-18T02:21:38.258Z,0.00
2019-02-18T02:22:38.374Z,0.00
2019-02-18T02:23:38.520Z,0.00
2019-02-18T02:24:38.656Z,0.00
2019-02-18T02:25:38.766Z,0.00
2019-02-18T02:26:38.891Z,0.00
2019-02-18T02:27:39.019Z,0.00
2019-02-18T02:28:39.161Z,0.00
2019-02-18T02:29:39.268Z,0.00
2019-02-18T02:30:39.405Z,0.00
2019-02-18T02:31:39.549Z,0.00
2019-02-18T02:32:39.663Z,0.00
2019-02-18T02:33:39.831Z,0.00
2019-02-18T02:34:39.927Z,0.00
2019-02-18T02:35:40.044Z,0.00
2019-02-18T02:36:40.168Z,0.00
2019-02-18T02:37:40.291Z,0.00
2019-02-18T02:38:40.448Z,0.00
2019-02-18T02:39:40.568Z,0.00
2019-02-18T02:40:40.695Z,0.00
2019-02-18T02:41:40.849Z,0.00
2019-02-18T02:42:40.966Z,0.00
2019-02-18T02:43:41.091Z,0.00
2019-02-18T02:44:41.211Z,0.00
2019-02-18T02:45:41.343Z,0.00
2019-02-18T02:46:41.469Z,0.00
2019-02-18T02:47:41.599Z,0.00
2019-02-18T02:48:41.732Z,0.00
2019-02-18T02:49:41.859Z,0.00
2019-02-18T02:50:41.970Z,0.00
2019-02-18T02:51:42.096Z,0.00
2019-02-18T02:52:42.218Z,0.00
2019-02-18T02:53:42.368Z,0.00
2019-02-18T02:54:42.490Z,0.00
2019-02-18T02:55:42.610Z,0.00
2019-02-18T02:56:42.742Z,0.00
2019-02-18T02:57:42.886Z,0.00
2019-02-18T02:58:43.007Z,0.00
2019-02-18T02:59:43.137Z,0.00
2019-02-18T03:00:43.279Z,0.00
2019-02-18T03:01:43.396Z,0.00
2019-02-18T03:02:43.526Z,0.00
2019-02-18T03:03:43.654Z,0.00
2019-02-18T03:04:43.795Z,0.00
2019-02-18T03:05:43.915Z,0.00
2019-02-18T03:06:44.044Z,0.00
2019-02-18T03:07:44.159Z,0.00
2019-02-18T03:08:44.284Z,0.00
2019-02-18T03:09:44.416Z,0.00
2019-02-18T03:10:44.539Z,0.00
2019-02-18T03:11:44.720Z,0.00
2019-02-18T03:12:44.809Z,0.00
2019-02-18T03:13:44.934Z,0.00
2019-02-18T03:14:45.068Z,0.00
2019-02-18T03:15:45.213Z,0.00
2019-02-18T03:16:45.328Z,0.00
2019-02-18T03:17:45.445Z,0.00
2019-02-18T03:18:45.573Z,0.00
2019-02-18T03:19:45.730Z,0.00
2019-02-18T03:20:45.850Z,0.00
2019-02-18T03:21:45.976Z,0.00
2019-02-18T03:22:46.098Z,0.00
2019-02-18T03:23:47.172Z,0.00
2019-02-18T03:24:46.387Z,0.00
2019-02-18T03:25:46.512Z,0.00
2019-02-18T03:26:46.667Z,0.00
2019-02-18T03:27:46.773Z,0.00
2019-02-18T03:28:46.895Z,0.00
2019-02-18T03:29:47.043Z,0.00
2019-02-18T03:30:47.152Z,0.00
2019-02-18T03:31:47.332Z,0.00
2019-02-18T03:32:47.424Z,0.00
2019-02-18T03:33:47.541Z,0.00
2019-02-18T03:34:47.661Z,0.00
2019-02-18T03:35:47.829Z,0.00
2019-02-18T03:36:47.941Z,0.00
2019-02-18T03:37:48.073Z,0.00
2019-02-18T03:38:48.199Z,0.00
2019-02-18T03:39:48.340Z,0.00
2019-02-18T03:40:48.460Z,0.00
2019-02-18T03:41:48.583Z,0.00
2019-02-18T03:42:48.713Z,0.00
2019-02-18T03:43:48.853Z,0.00
2019-02-18T03:44:48.973Z,0.00
2019-02-18T03:45:49.099Z,0.00
2019-02-18T03:46:50.727Z,0.00
2019-02-18T03:47:49.352Z,0.00
2019-02-18T03:48:49.475Z,0.00
2019-02-18T03:49:49.605Z,0.00
2019-02-18T03:50:49.723Z,0.00
2019-02-18T03:51:49.853Z,0.00
2019-02-18T03:52:49.968Z,0.00
2019-02-18T03:53:50.111Z,0.00
2019-02-18T03:54:50.234Z,0.00
2019-02-18T03:55:50.360Z,0.00
2019-02-18T03:56:50.488Z,0.00
2019-02-18T03:57:50.661Z,0.00
2019-02-18T03:58:50.773Z,0.00
2019-02-18T03:59:50.896Z,0.00
2019-02-18T04:00:51.047Z,0.00
2019-02-18T04:01:51.171Z,0.00
2019-02-18T04:02:51.299Z,0.00
2019-02-18T04:03:51.421Z,0.00
2019-02-18T04:04:51.605Z,0.00
2019-02-18T04:05:51.718Z,0.00
2019-02-18T04:06:51.837Z,0.00
2019-02-18T04:07:51.964Z,0.00
2019-02-18T04:08:52.139Z,0.00
2019-02-18T04:09:52.212Z,0.00
2019-02-18T04:10:52.340Z,0.00
2019-02-18T04:11:52.460Z,0.00
2019-02-18T04:12:52.602Z,0.00
2019-02-18T04:13:52.727Z,0.00
2019-02-18T04:14:52.850Z,0.00
2019-02-18T04:15:52.974Z,0.00
2019-02-18T04:16:53.127Z,0.00
2019-02-18T04:17:53.246Z,0.00
2019-02-18T04:18:53.378Z,0.00
2019-02-18T04:19:53.506Z,0.00
2019-02-18T04:20:53.644Z,0.00
2019-02-18T04:21:53.770Z,0.00
2019-02-18T04:22:53.895Z,0.00
2019-02-18T04:23:54.021Z,0.00
2019-02-18T04:24:54.196Z,0.00
2019-02-18T04:25:54.314Z,0.00
2019-02-18T04:26:54.440Z,0.00
2019-02-18T04:27:54.562Z,0.00
2019-02-18T04:28:54.710Z,0.00
2019-02-18T04:29:54.835Z,0.00
2019-02-18T04:30:54.959Z,0.00
2019-02-18T04:31:55.087Z,0.00
2019-02-18T04:32:55.221Z,0.00
2019-02-18T04:33:55.349Z,0.00
2019-02-18T04:34:55.463Z,0.00
2019-02-18T04:35:55.589Z,0.00
2019-02-18T04:36:55.731Z,0.00
2019-02-18T04:37:55.859Z,0.00
2019-02-18T04:38:55.977Z,0.00
2019-02-18T04:39:56.104Z,0.00
2019-02-18T04:40:56.240Z,0.00
2019-02-18T04:41:56.363Z,0.00
2019-02-18T04:42:56.489Z,0.00
2019-02-18T04:43:56.619Z,0.00
2019-02-18T04:44:56.766Z,0.00
2019-02-18T04:45:56.886Z,0.00
2019-02-18T04:46:57.008Z,0.00
2019-02-18T04:47:57.133Z,0.00
2019-02-18T04:48:57.278Z,0.00
2019-02-18T04:49:57.399Z,0.00
2019-02-18T04:50:57.516Z,0.00
2019-02-18T04:51:57.638Z,0.00
2019-02-18T04:52:57.779Z,0.00
2019-02-18T04:53:57.887Z,0.00
2019-02-18T04:54:58.013Z,0.00
2019-02-18T04:55:58.169Z,0.00
2019-02-18T04:56:58.279Z,0.00
2019-02-18T04:57:58.404Z,0.00
2019-02-18T04:58:58.528Z,0.00
2019-02-18T04:59:58.666Z,0.00
2019-02-18T05:00:58.795Z,0.00
2019-02-18T05:01:58.914Z,0.00
2019-02-18T05:02:59.045Z,0.00
2019-02-18T05:03:59.177Z,0.00
2019-02-18T05:04:59.300Z,0.00
2019-02-18T05:05:59.426Z,0.00
2019-02-18T05:06:59.559Z,0.00
2019-02-18T05:07:59.675Z,0.00
2019-02-18T05:09:05.217Z,0.00
2019-02-18T05:09:59.936Z,0.00
2019-02-18T05:11:00.063Z,0.00
2019-02-18T05:12:00.182Z,0.00
2019-02-18T05:13:00.309Z,0.00
2019-02-18T05:14:00.448Z,0.00
2019-02-18T05:15:00.572Z,0.00
2019-02-18T05:16:00.692Z,0.00
2019-02-18T05:17:00.824Z,0.00
2019-02-18T05:18:00.959Z,0.00
2019-02-18T05:19:01.078Z,0.00
2019-02-18T05:20:01.199Z,0.00
2019-02-18T05:21:01.335Z,0.00
2019-02-18T05:22:01.469Z,0.00
2019-02-18T05:23:01.594Z,0.00
2019-02-18T05:24:01.729Z,0.00
2019-02-18T05:25:01.842Z,0.00
2019-02-18T05:26:01.963Z,0.00
2019-02-18T05:27:02.088Z,0.00
2019-02-18T05:28:02.211Z,0.00
2019-02-18T05:29:02.359Z,0.00
2019-02-18T05:30:02.458Z,0.00
2019-02-18T05:31:02.589Z,0.00
2019-02-18T05:32:02.705Z,0.00
2019-02-18T05:33:02.848Z,0.00
2019-02-18T05:34:02.960Z,0.00
2019-02-18T05:35:03.087Z,0.00
2019-02-18T05:36:03.208Z,0.00
2019-02-18T05:37:03.376Z,0.00
2019-02-18T05:38:03.500Z,0.00
2019-02-18T05:39:03.622Z,0.00
2019-02-18T05:40:03.754Z,0.00
2019-02-18T05:41:03.885Z,0.00
2019-02-18T05:42:04.003Z,0.00
2019-02-18T05:43:04.128Z,0.00
2019-02-18T05:44:04.259Z,0.00
2019-02-18T05:45:04.400Z,0.00
2019-02-18T05:46:04.523Z,0.00
2019-02-18T05:47:04.658Z,0.00
2019-02-18T05:48:04.775Z,0.00
2019-02-18T05:49:04.907Z,0.00
2019-02-18T05:50:05.041Z,0.00
2019-02-18T05:51:05.152Z,0.00
2019-02-18T05:52:05.288Z,0.00
2019-02-18T05:53:05.415Z,0.00
2019-02-18T05:54:05.522Z,0.00
2019-02-18T05:55:05.647Z,0.00
2019-02-18T05:56:05.769Z,0.00
2019-02-18T05:57:05.952Z,0.00
2019-02-18T05:58:06.049Z,0.00
2019-02-18T05:59:06.193Z,4.00
2019-02-18T06:00:06.322Z,4.00
2019-02-18T06:01:06.454Z,0.00
2019-02-18T06:02:06.586Z,0.00
2019-02-18T06:03:06.729Z,4.00
2019-02-18T06:04:06.829Z,4.00
2019-02-18T06:05:06.949Z,4.00
2019-02-18T06:06:07.094Z,4.00
2019-02-18T06:07:07.214Z,4.00
2019-02-18T06:08:07.336Z,8.00
2019-02-18T06:09:07.476Z,8.00
2019-02-18T06:10:07.595Z,8.00
2019-02-18T06:11:07.737Z,12.00
2019-02-18T06:12:07.874Z,16.00
2019-02-18T06:13:07.982Z,16.00
2019-02-18T06:14:08.105Z,20.00
2019-02-18T06:15:08.238Z,20.00
2019-02-18T06:16:08.360Z,24.00
2019-02-18T06:17:08.471Z,28.00
2019-02-18T06:18:08.619Z,36.00
2019-02-18T06:19:08.754Z,40.00
2019-02-18T06:20:08.881Z,44.00
2019-02-18T06:21:09.013Z,52.00
2019-02-18T06:22:09.133Z,60.00
2019-02-18T06:23:09.249Z,68.00
2019-02-18T06:24:09.371Z,76.00
2019-02-18T06:25:09.532Z,88.00
2019-02-18T06:26:09.646Z,96.00
2019-02-18T06:27:09.775Z,108.00
2019-02-18T06:28:09.899Z,120.00
2019-02-18T06:29:10.014Z,136.00
2019-02-18T06:30:10.152Z,152.00
2019-02-18T06:31:10.266Z,168.00
2019-02-18T06:32:10.392Z,184.00
2019-02-18T06:33:10.528Z,200.00
2019-02-18T06:34:10.657Z,220.00
2019-02-18T06:35:10.791Z,240.00
2019-02-18T06:36:10.909Z,260.00
2019-02-18T06:37:11.023Z,280.00
2019-02-18T06:38:11.169Z,300.00
2019-02-18T06:39:11.305Z,324.00
2019-02-18T06:40:11.438Z,344.00
2019-02-18T06:41:11.565Z,364.00
2019-02-18T06:42:11.665Z,384.00
2019-02-18T06:43:11.802Z,404.00
2019-02-18T06:44:11.913Z,428.00
2019-02-18T06:45:12.118Z,452.00
2019-02-18T06:46:12.174Z,476.00
2019-02-18T06:47:12.314Z,496.00
2019-02-18T06:48:12.435Z,520.00
2019-02-18T06:49:12.554Z,544.00
2019-02-18T06:50:12.679Z,564.00
2019-02-18T06:51:12.809Z,588.00
2019-02-18T06:52:12.939Z,612.00
2019-02-18T06:53:13.065Z,636.00
2019-02-18T06:54:13.199Z,660.00
2019-02-18T06:55:13.310Z,688.00
2019-02-18T06:56:13.438Z,712.00
2019-02-18T06:57:13.546Z,736.00
2019-02-18T06:58:13.705Z,764.00
2019-02-18T06:59:13.836Z,788.00
2019-02-18T07:00:13.954Z,812.00
2019-02-18T07:01:14.095Z,836.00
2019-02-18T07:02:14.212Z,864.00
2019-02-18T07:03:14.350Z,892.00
2019-02-18T07:04:14.484Z,920.00
2019-02-18T07:05:14.686Z,944.00
2019-02-18T07:06:14.736Z,972.00
2019-02-18T07:07:14.859Z,1000.00
2019-02-18T07:08:14.993Z,1024.00
2019-02-18T07:09:15.158Z,1052.00
2019-02-18T07:10:15.260Z,1076.00
2019-02-18T07:11:15.382Z,1096.00
2019-02-18T07:12:15.516Z,1124.00
2019-02-18T07:13:15.657Z,1148.00
2019-02-18T07:14:15.774Z,1172.00
2019-02-18T07:15:15.904Z,1204.00
2019-02-18T07:16:16.023Z,1232.00
2019-02-18T07:17:16.165Z,1252.00
2019-02-18T07:18:16.267Z,1276.00
2019-02-18T07:19:16.400Z,1296.00
2019-02-18T07:20:16.529Z,1320.00
2019-02-18T07:21:16.641Z,1348.00
2019-02-18T07:22:16.775Z,1372.00
2019-02-18T07:23:16.907Z,1396.00
2019-02-18T07:24:17.048Z,1420.00
2019-02-18T07:25:17.156Z,1444.00
2019-02-18T07:26:17.289Z,1472.00
2019-02-18T07:27:17.413Z,1500.00
2019-02-18T07:28:17.542Z,1528.00
2019-02-18T07:29:17.662Z,1560.00
2019-02-18T07:30:17.786Z,1584.00
2019-02-18T07:31:17.924Z,1612.00
2019-02-18T07:32:18.042Z,1644.00
2019-02-18T07:33:18.167Z,1692.00
2019-02-18T07:34:18.309Z,1748.00
2019-02-18T07:35:18.424Z,1812.00
2019-02-18T07:36:18.557Z,1876.00
2019-02-18T07:37:18.681Z,1932.00
2019-02-18T07:38:18.829Z,1980.00
2019-02-18T07:39:18.948Z,2012.00
2019-02-18T07:40:19.081Z,2040.00
2019-02-18T07:41:19.211Z,2064.00
2019-02-18T07:42:19.346Z,2096.00
2019-02-18T07:43:19.464Z,2128.00
2019-02-18T07:44:19.659Z,2160.00
2019-02-18T07:45:19.714Z,2184.00
2019-02-18T07:46:19.886Z,2200.00
2019-02-18T07:47:20.005Z,2220.00
2019-02-18T07:48:20.137Z,2248.00
2019-02-18T07:49:20.265Z,2268.00
2019-02-18T07:50:21.121Z,2280.00
2019-02-18T07:51:20.521Z,2304.00
2019-02-18T07:52:20.653Z,2316.00
2019-02-18T07:53:20.801Z,2332.00
2019-02-18T07:54:20.921Z,2344.00
2019-02-18T07:55:21.068Z,2368.00
2019-02-18T07:56:21.171Z,2396.00
2019-02-18T07:57:21.314Z,2424.00
2019-02-18T07:58:21.430Z,2448.00
2019-02-18T07:59:21.556Z,2480.00
2019-02-18T08:00:21.725Z,2504.00
2019-02-18T08:01:21.836Z,2540.00
2019-02-18T08:02:21.968Z,2576.00
2019-02-18T08:03:22.085Z,2612.00
2019-02-18T08:04:22.226Z,2644.00
2019-02-18T08:05:22.349Z,2672.00
2019-02-18T08:06:22.477Z,2692.00
2019-02-18T08:07:22.595Z,2716.00
2019-02-18T08:08:22.727Z,2744.00
2019-02-18T08:09:22.846Z,2772.00
2019-02-18T08:10:22.974Z,2800.00
2019-02-18T08:11:23.132Z,2820.00
2019-02-18T08:12:23.290Z,2844.00
2019-02-18T08:13:23.381Z,2852.00
2019-02-18T08:14:23.503Z,2876.00
2019-02-18T08:15:23.696Z,2892.00
2019-02-18T08:16:23.784Z,2904.00
2019-02-18T08:17:23.971Z,2932.00
2019-02-18T08:18:24.032Z,2960.00
2019-02-18T08:19:24.179Z,2996.00
2019-02-18T08:20:24.303Z,3048.00
2019-02-18T08:21:24.421Z,3084.00
2019-02-18T08:22:24.585Z,3128.00
2019-02-18T08:23:24.706Z,3160.00
2019-02-18T08:24:24.830Z,3192.00
2019-02-18T08:25:24.976Z,3216.00
2019-02-18T08:26:25.074Z,3236.00
2019-02-18T08:27:25.201Z,3252.00
2019-02-18T08:28:25.326Z,3276.00
2019-02-18T08:29:25.474Z,3312.00
2019-02-18T08:30:25.590Z,3348.00
2019-02-18T08:31:25.714Z,3380.00
2019-02-18T08:32:25.850Z,3404.00
2019-02-18T08:33:25.994Z,3428.00
2019-02-18T08:34:26.127Z,3452.00
2019-02-18T08:35:26.246Z,3488.00
2019-02-18T08:36:26.378Z,3512.00
2019-02-18T08:37:26.509Z,3532.00
2019-02-18T08:38:26.639Z,3560.00
2019-02-18T08:39:26.756Z,3584.00
2019-02-18T08:40:26.913Z,3616.00
2019-02-18T08:41:27.039Z,3640.00
2019-02-18T08:42:27.166Z,3656.00
2019-02-18T08:43:27.290Z,3676.00
2019-02-18T08:44:27.436Z,3696.00
2019-02-18T08:45:27.548Z,3716.00
2019-02-18T08:46:27.673Z,3748.00
2019-02-18T08:47:27.805Z,3780.00
2019-02-18T08:48:27.924Z,3808.00
2019-02-18T08:49:28.054Z,3832.00
2019-02-18T08:50:28.196Z,3836.00
2019-02-18T08:51:28.308Z,3844.00
2019-02-18T08:52:28.471Z,3852.00
2019-02-18T08:53:28.597Z,3864.00
2019-02-18T08:54:28.721Z,3884.00
2019-02-18T08:55:28.853Z,3916.00
2019-02-18T08:56:28.987Z,3948.00
2019-02-18T08:57:29.101Z,3972.00
2019-02-18T08:58:29.230Z,4000.00
2019-02-18T08:59:29.359Z,4036.00
2019-02-18T09:00:29.481Z,4072.00
2019-02-18T09:01:29.618Z,4116.00
2019-02-18T09:02:29.744Z,4164.00
2019-02-18T09:03:29.946Z,4212.00
2019-02-18T09:04:30.008Z,4260.00
2019-02-18T09:05:30.133Z,4304.00
2019-02-18T09:06:30.299Z,4352.00
2019-02-18T09:07:30.405Z,4396.00
2019-02-18T09:08:30.542Z,4436.00
2019-02-18T09:09:30.674Z,4472.00
2019-02-18T09:10:33.625Z,4508.00
2019-02-18T09:11:30.928Z,4556.00
2019-02-18T09:12:31.060Z,4604.00
2019-02-18T09:13:31.207Z,4652.00
2019-02-18T09:14:31.347Z,4696.00
2019-02-18T09:15:31.466Z,4732.00
2019-02-18T09:16:31.589Z,4764.00
2019-02-18T09:17:31.721Z,4804.00
2019-02-18T09:18:31.881Z,4852.00
2019-02-18T09:19:32.010Z,4904.00
2019-02-18T09:20:32.135Z,4952.00
2019-02-18T09:21:32.275Z,5000.00
2019-02-18T09:22:32.414Z,5052.00
2019-02-18T09:23:32.539Z,5096.00
2019-02-18T09:24:32.656Z,5140.00
2019-02-18T09:25:32.804Z,5184.00
2019-02-18T09:26:32.928Z,5228.00
2019-02-18T09:27:33.061Z,5268.00
2019-02-18T09:28:33.194Z,5300.00
2019-02-18T09:29:33.333Z,5340.00
2019-02-18T09:30:33.453Z,5380.00
2019-02-18T09:31:33.596Z,5432.00
2019-02-18T09:32:33.759Z,5476.00
2019-02-18T09:33:33.878Z,5524.00
2019-02-18T09:34:34.016Z,5576.00
2019-02-18T09:35:34.135Z,5624.00
2019-02-18T09:36:34.262Z,5680.00
2019-02-18T09:37:34.402Z,5716.00
2019-02-18T09:38:34.526Z,5764.00
2019-02-18T09:39:34.654Z,5804.00
2019-02-18T09:40:44.230Z,5856.00
2019-02-18T09:41:34.905Z,5912.00
2019-02-18T09:42:35.027Z,5952.00
2019-02-18T09:43:35.181Z,5996.00
2019-02-18T09:44:35.287Z,6040.00
2019-02-18T09:45:35.419Z,6080.00
2019-02-18T09:46:35.537Z,6128.00
2019-02-18T09:47:35.668Z,6172.00
2019-02-18T09:48:35.798Z,6216.00
2019-02-18T09:49:35.912Z,6260.00
2019-02-18T09:50:36.043Z,6316.00
2019-02-18T09:51:36.171Z,6372.00
2019-02-18T09:52:36.339Z,6424.00
2019-02-18T09:53:36.425Z,6468.00
2019-02-18T09:54:36.553Z,6516.00
2019-02-18T09:55:36.684Z,6572.00
2019-02-18T09:56:37.077Z,6620.00
2019-02-18T09:57:36.937Z,6676.00
2019-02-18T09:58:37.083Z,6720.00
2019-02-18T09:59:37.190Z,6752.00
2019-02-18T10:00:37.318Z,6776.00
2019-02-18T10:01:37.453Z,6792.00
2019-02-18T10:02:37.577Z,6812.00
2019-02-18T10:03:37.708Z,6832.00
2019-02-18T10:04:37.829Z,6848.00
2019-02-18T10:05:37.981Z,6876.00
2019-02-18T10:06:38.119Z,6912.00
2019-02-18T10:07:38.237Z,6940.00
2019-02-18T10:08:38.370Z,6980.00
2019-02-18T10:09:38.496Z,7000.00
2019-02-18T10:10:38.625Z,7088.00
2019-02-18T10:11:38.752Z,7128.00
2019-02-18T10:12:38.877Z,7168.00
2019-02-18T10:13:39.059Z,7204.00
2019-02-18T10:14:39.196Z,7212.00
2019-02-18T10:15:39.325Z,7252.00
2019-02-18T10:16:39.451Z,7316.00
2019-02-18T10:17:39.580Z,7364.00
2019-02-18T10:18:39.704Z,7380.00
2019-02-18T10:19:39.852Z,7380.00
2019-02-18T10:20:40.054Z,7424.00
2019-02-18T10:21:40.114Z,7468.00
2019-02-18T10:22:40.238Z,7496.00
2019-02-18T10:23:40.377Z,7488.00
2019-02-18T10:24:50.431Z,7588.00
2019-02-18T10:25:40.646Z,7768.00
2019-02-18T10:26:40.770Z,7952.00
2019-02-18T10:27:40.900Z,8356.00
2019-02-18T10:28:41.030Z,8476.00
2019-02-18T10:29:41.159Z,8432.00
2019-02-18T10:30:41.289Z,8452.00
2019-02-18T10:31:41.413Z,8420.00
2019-02-18T10:32:41.557Z,8488.00
2019-02-18T10:33:41.681Z,8508.00
2019-02-18T10:34:41.825Z,8348.00
2019-02-18T10:35:41.946Z,8260.00
2019-02-18T10:36:42.076Z,8548.00
2019-02-18T10:37:42.230Z,8844.00
2019-02-18T10:38:42.362Z,9060.00
2019-02-18T10:39:42.484Z,9404.00
2019-02-18T10:40:42.627Z,13228.00
2019-02-18T10:41:42.749Z,32192.00
2019-02-18T10:42:42.878Z,36640.00
2019-02-18T10:43:43.005Z,50720.00
2019-02-18T10:44:43.164Z,62336.00
2019-02-18T10:45:43.302Z,72768.00
2019-02-18T10:46:43.436Z,64960.00
2019-02-18T10:47:43.570Z,49248.00
2019-02-18T10:48:43.700Z,47488.00
2019-02-18T10:49:43.884Z,68288.00
2019-02-18T10:50:44.022Z,80096.00
2019-02-18T10:51:44.155Z,74944.00
2019-02-18T10:52:44.299Z,65504.00
2019-02-18T10:53:44.432Z,42880.00
2019-02-18T10:54:44.566Z,55200.00
2019-02-18T10:55:44.696Z,66144.00
2019-02-18T10:56:44.835Z,68480.00
2019-02-18T10:57:45.019Z,67232.00
2019-02-18T10:58:45.143Z,61408.00
2019-02-18T10:59:45.271Z,64416.00
2019-02-18T11:00:45.422Z,75328.00
2019-02-18T11:01:45.565Z,74688.00
2019-02-18T11:02:45.702Z,76160.00
2019-02-18T11:03:45.839Z,74912.00
2019-02-18T11:04:45.996Z,72416.00
2019-02-18T11:05:46.143Z,74272.00
2019-02-18T11:06:46.283Z,78208.00
2019-02-18T11:07:46.415Z,93024.00
2019-02-18T11:08:46.579Z,80832.00
2019-02-18T11:09:46.712Z,34016.00
2019-02-18T11:10:46.866Z,12892.00
2019-02-18T11:11:46.988Z,35744.00
2019-02-18T11:12:47.731Z,56384.00
2019-02-18T11:13:47.284Z,47872.00
2019-02-18T11:14:47.423Z,55104.00
2019-02-18T11:15:47.562Z,60192.00
2019-02-18T11:16:47.715Z,55936.00
2019-02-18T11:17:47.850Z,59040.00
2019-02-18T11:18:48.001Z,72608.00
2019-02-18T11:19:48.121Z,69152.00
2019-02-18T11:20:48.278Z,60224.00
2019-02-18T11:21:48.507Z,66656.00
2019-02-18T11:22:48.519Z,79360.00
2019-02-18T11:23:48.663Z,81760.00
2019-02-18T11:24:48.827Z,75008.00
2019-02-18T11:25:48.950Z,51904.00
2019-02-18T11:26:49.085Z,24928.00
2019-02-18T11:27:49.225Z,11312.00
2019-02-18T11:28:49.378Z,26944.00
2019-02-18T11:29:49.512Z,62048.00
2019-02-18T11:30:49.644Z,92064.00
2019-02-18T11:31:49.787Z,95680.00
2019-02-18T11:32:49.954Z,89312.00
2019-02-18T11:33:50.079Z,86496.00
2019-02-18T11:34:50.229Z,73440.00
2019-02-18T11:35:50.363Z,77600.00
2019-02-18T11:36:50.537Z,92416.00
2019-02-18T11:37:50.661Z,85088.00
2019-02-18T11:38:50.809Z,77088.00
2019-02-18T11:39:50.948Z,78304.00
2019-02-18T11:40:51.116Z,65728.00
2019-02-18T11:41:51.250Z,50784.00
2019-02-18T11:42:51.386Z,81120.00
2019-02-18T11:43:51.543Z,74528.00
2019-02-18T11:44:51.702Z,71232.00
2019-02-18T11:45:51.835Z,71520.00
2019-02-18T11:46:51.971Z,60160.00
2019-02-18T11:47:52.108Z,60032.00
2019-02-18T11:48:52.288Z,73984.00
2019-02-18T11:49:52.412Z,86336.00
2019-02-18T11:50:52.564Z,86016.00
2019-02-18T11:51:52.695Z,66816.00
2019-02-18T11:52:52.843Z,58016.00
2019-02-18T11:53:52.980Z,70528.00
2019-02-18T11:54:53.127Z,71424.00
2019-02-18T11:55:53.276Z,82784.00
2019-02-18T11:56:53.440Z,106496.00
2019-02-18T11:57:53.581Z,104608.00
2019-02-18T11:58:53.714Z,93248.00
2019-02-18T11:59:53.854Z,92608.00
2019-02-18T12:00:54.003Z,91552.00
2019-02-18T12:01:54.145Z,93248.00
2019-02-18T12:03:02.801Z,83456.00
2019-02-18T12:03:54.448Z,76064.00
2019-02-18T12:04:54.592Z,77280.00
2019-02-18T12:05:54.841Z,76256.00
2019-02-18T12:06:54.871Z,77312.00
2019-02-18T12:07:55.015Z,90176.00
2019-02-18T12:08:55.174Z,97952.00
2019-02-18T12:09:55.307Z,101472.00
2019-02-18T12:10:55.484Z,100224.00
2019-02-18T12:11:55.625Z,94336.00
2019-02-18T12:12:56.037Z,78976.00
2019-02-18T12:13:55.941Z,73952.00
2019-02-18T12:14:56.077Z,77760.00
2019-02-18T12:15:56.218Z,83232.00
2019-02-18T12:16:56.378Z,90496.00
2019-02-18T12:17:56.525Z,96640.00
2019-02-18T12:18:56.676Z,93344.00
2019-02-18T12:19:56.835Z,94048.00
2019-02-18T12:20:57.004Z,93184.00
2019-02-18T12:21:57.144Z,97632.00
2019-02-18T12:22:57.290Z,94688.00
2019-02-18T12:23:57.440Z,86304.00
2019-02-18T12:24:57.601Z,80384.00
2019-02-18T12:25:57.746Z,73728.00
2019-02-18T12:26:57.896Z,68288.00
2019-02-18T12:27:58.045Z,72064.00
2019-02-18T12:28:58.190Z,56128.00
2019-02-18T12:29:58.341Z,63456.00
2019-02-18T12:30:58.499Z,54720.00
2019-02-18T12:31:58.674Z,33280.00
2019-02-18T12:32:58.806Z,38880.00
2019-02-18T12:33:58.954Z,40384.00
2019-02-18T12:34:59.110Z,53024.00
2019-02-18T12:35:59.259Z,69472.00
2019-02-18T12:36:59.407Z,69760.00
2019-02-18T12:37:59.558Z,77440.00
2019-02-18T12:38:59.704Z,61952.00